Time;durP1;ratioP1;P1;durP2;ratioP2;P2;SDS_P1;SDS_P2;PMS_P1;PMS_P2;Temp;Humidity;BMP_temperature;BMP_pressure;BME280_temperature;BME280_humidity;BME280_pressure;Samples;Min_cycle;Max_cycle;Signal;HPM_P1;HPM_P2
2022/07/31 00:00:27;;;;;;;5.80;3.58;;;;;;;22.89;58.03;100528.22;1742145;80;21053;-49
2022/07/31 00:02:54;;;;;;;7.00;3.87;;;;;;;22.91;57.92;100523.48;1740578;81;21077;-49
2022/07/31 00:05:21;;;;;;;6.12;3.85;;;;;;;22.90;57.90;100519.16;1731088;81;21244;-48
2022/07/31 00:07:48;;;;;;;7.47;3.85;;;;;;;22.87;57.92;100520.37;1727264;81;21066;-49
2022/07/31 00:10:15;;;;;;;6.60;3.80;;;;;;;22.85;57.81;100513.05;1720236;81;21529;-47
2022/07/31 00:12:42;;;;;;;7.08;3.87;;;;;;;22.82;57.89;100510.23;1705198;82;21143;-46
2022/07/31 00:15:11;;;;;;;6.17;4.08;;;;;;;22.81;57.84;100505.06;1701245;83;21118;-47
2022/07/31 00:17:39;;;;;;;7.87;4.05;;;;;;;22.79;57.70;100506.60;1697138;82;21113;-47
2022/07/31 00:20:08;;;;;;;6.08;4.05;;;;;;;22.78;57.82;100501.47;1696420;82;21028;-46
2022/07/31 00:22:34;;;;;;;6.67;4.15;;;;;;;22.75;57.88;100500.52;1700760;82;21127;-46
2022/07/31 00:25:01;;;;;;;6.17;4.12;;;;;;;22.71;57.90;100502.78;1703128;82;21728;-46
2022/07/31 00:27:27;;;;;;;6.85;4.28;;;;;;;22.66;57.86;100501.18;1704339;82;21112;-46
2022/07/31 00:29:54;;;;;;;6.83;4.20;;;;;;;22.60;58.00;100497.98;1701437;83;21138;-46
2022/07/31 00:32:21;;;;;;;8.58;3.75;;;;;;;22.55;58.00;100502.59;1702729;83;21087;-46
2022/07/31 00:34:49;;;;;;;5.87;3.83;;;;;;;22.51;57.93;100501.83;1700273;82;21082;-46
2022/07/31 00:37:15;;;;;;;8.08;3.62;;;;;;;22.47;57.99;100495.23;1704746;82;21077;-46
2022/07/31 00:39:42;;;;;;;7.22;4.42;;;;;;;22.40;57.96;100488.48;1698600;83;21075;-47
2022/07/31 00:42:21;;;;;;;11.12;3.75;;;;;;;22.36;58.08;100488.55;1707967;82;21139;-46
2022/07/31 00:44:48;;;;;;;7.25;4.05;;;;;;;22.31;58.11;100482.47;1706978;83;21478;-47
2022/07/31 00:47:15;;;;;;;5.37;3.50;;;;;;;22.28;58.06;100484.69;1700775;82;21033;-47
2022/07/31 00:49:42;;;;;;;6.03;3.90;;;;;;;22.25;58.01;100480.02;1693637;83;21688;-47
2022/07/31 00:52:08;;;;;;;8.45;3.80;;;;;;;22.22;58.01;100478.24;1686502;82;21062;-48
2022/07/31 00:54:35;;;;;;;8.68;3.70;;;;;;;22.17;58.12;100480.16;1702968;83;21135;-50
2022/07/31 00:57:02;;;;;;;7.22;3.17;;;;;;;22.14;58.12;100481.08;1704820;82;21025;-47
2022/07/31 00:59:29;;;;;;;4.95;2.80;;;;;;;22.14;58.12;100474.37;1700412;83;21555;-47
2022/07/31 01:01:56;;;;;;;5.62;3.02;;;;;;;22.19;57.96;100479.48;1706223;82;21677;-47
2022/07/31 01:04:22;;;;;;;6.78;3.17;;;;;;;22.22;57.72;100476.38;1703850;83;21165;-47
2022/07/31 01:06:49;;;;;;;5.80;3.12;;;;;;;22.21;57.52;100474.75;1700300;82;21100;-47
2022/07/31 01:09:16;;;;;;;5.03;2.70;;;;;;;22.21;57.26;100472.06;1699410;82;21123;-47
2022/07/31 01:12:04;;;;;;;5.17;2.70;;;;;;;22.20;57.08;100473.08;1709235;83;21113;-47
2022/07/31 01:14:34;;;;;;;6.33;2.90;;;;;;;22.18;56.99;100471.11;1711145;82;22284;-47
2022/07/31 01:17:01;;;;;;;6.10;2.52;;;;;;;22.16;56.78;100465.66;1729001;82;21138;-48
2022/07/31 01:19:42;;;;;;;12.75;3.42;;;;;;;22.13;56.74;100466.05;1760515;79;22049;-48
2022/07/31 01:22:37;;;;;;;5.97;2.90;;;;;;;22.11;56.71;100474.77;1767837;79;21101;-48
2022/07/31 01:25:40;;;;;;;5.20;2.72;;;;;;;22.03;56.69;100464.52;1766424;79;21099;-48
2022/07/31 01:28:43;;;;;;;6.20;3.12;;;;;;;21.97;56.90;100470.69;1689774;82;21047;-48
2022/07/31 01:31:17;;;;;;;7.70;2.73;;;;;;;21.94;56.96;100466.20;1712168;82;21040;-48
2022/07/31 01:33:54;;;;;;;5.08;2.90;;;;;;;21.89;57.10;100471.65;1768130;79;21144;-48
2022/07/31 01:36:24;;;;;;;5.60;2.58;;;;;;;21.86;57.14;100471.22;1770252;80;21085;-48
2022/07/31 01:38:52;;;;;;;6.00;2.67;;;;;;;21.81;57.20;100462.94;1768934;79;21060;-47
2022/07/31 01:41:24;;;;;;;4.60;2.45;;;;;;;21.79;57.19;100466.33;1768058;80;21125;-48
2022/07/31 01:43:52;;;;;;;6.00;2.60;;;;;;;21.78;57.00;100464.66;1766637;79;22236;-47
2022/07/31 01:46:19;;;;;;;5.72;2.80;;;;;;;21.76;57.16;100465.38;1747939;80;21150;-48
2022/07/31 01:48:47;;;;;;;5.33;2.60;;;;;;;21.73;57.30;100465.76;1756645;80;21062;-47
2022/07/31 01:51:15;;;;;;;4.83;2.50;;;;;;;21.73;57.30;100468.44;1745332;79;21073;-48
2022/07/31 01:53:43;;;;;;;5.62;2.85;;;;;;;21.74;57.45;100468.24;1771620;79;21028;-48
2022/07/31 01:56:10;;;;;;;5.15;2.60;;;;;;;21.73;57.63;100465.76;1767495;80;21590;-48
2022/07/31 01:58:39;;;;;;;7.62;2.72;;;;;;;21.74;57.81;100464.72;1759798;79;21069;-48
2022/07/31 02:01:10;;;;;;;4.70;2.62;;;;;;;21.80;57.74;100465.29;1758808;80;20983;-48
2022/07/31 02:03:37;;;;;;;5.22;2.80;;;;;;;21.83;57.66;100465.72;1765997;79;21071;-48
2022/07/31 02:06:04;;;;;;;5.53;2.65;;;;;;;21.84;57.72;100467.91;1771495;80;21047;-47
2022/07/31 02:08:31;;;;;;;7.47;2.67;;;;;;;21.84;57.81;100470.59;1766491;79;21569;-48
2022/07/31 02:10:59;;;;;;;5.25;2.47;;;;;;;21.84;57.87;100472.75;1732481;81;21745;-48
2022/07/31 02:13:25;;;;;;;5.83;2.85;;;;;;;21.84;57.86;100467.39;1722324;82;21525;-48
2022/07/31 02:15:52;;;;;;;5.55;2.80;;;;;;;21.85;57.91;100477.59;1709959;82;21596;-47
2022/07/31 02:18:20;;;;;;;6.60;2.55;;;;;;;21.82;58.03;100480.16;1730360;81;21317;-47
2022/07/31 02:20:52;;;;;;;4.70;2.60;;;;;;;21.79;58.17;100483.73;1711110;83;21042;-48
2022/07/31 02:23:18;;;;;;;5.05;2.80;;;;;;;21.75;58.37;100479.77;1727432;81;21210;-48
2022/07/31 02:25:45;;;;;;;6.87;3.05;;;;;;;21.71;58.52;100474.80;1729097;82;21063;-48
2022/07/31 02:28:15;;;;;;;6.53;2.67;;;;;;;21.70;58.73;100481.20;1704131;82;21069;-48
2022/07/31 02:30:43;;;;;;;5.62;2.95;;;;;;;21.64;58.95;100479.28;1733761;82;21130;-47
2022/07/31 02:33:13;;;;;;;4.47;2.42;;;;;;;21.67;59.18;100488.28;1725148;81;22319;-48
2022/07/31 02:35:40;;;;;;;5.33;2.70;;;;;;;21.71;59.18;100486.85;1728362;82;21953;-47
2022/07/31 02:38:07;;;;;;;5.22;3.05;;;;;;;21.74;59.32;100482.97;1707007;82;21069;-47
2022/07/31 02:40:34;;;;;;;8.33;3.05;;;;;;;21.73;59.33;100487.19;1734702;82;21122;-48
2022/07/31 02:43:00;;;;;;;6.53;3.12;;;;;;;21.72;59.37;100483.69;1728773;81;21126;-49
2022/07/31 02:45:27;;;;;;;5.58;2.83;;;;;;;21.72;59.49;100494.39;1726166;81;21112;-47
2022/07/31 02:47:54;;;;;;;6.20;2.87;;;;;;;21.70;59.49;100490.57;1736188;81;21130;-48
2022/07/31 02:50:20;;;;;;;5.45;3.10;;;;;;;21.69;59.43;100488.91;1737765;81;21078;-48
2022/07/31 02:52:47;;;;;;;5.75;2.75;;;;;;;21.68;59.44;100489.09;1746276;81;21797;-47
2022/07/31 02:55:14;;;;;;;6.78;2.72;;;;;;;21.65;59.50;100487.65;1746666;82;21040;-47
2022/07/31 02:57:40;;;;;;;5.87;2.75;;;;;;;21.66;59.56;100486.61;1744143;81;21153;-48
2022/07/31 03:00:22;;;;;;;7.08;3.20;;;;;;;21.64;59.59;100482.48;1729592;82;21093;-48
2022/07/31 03:02:50;;;;;;;5.30;2.72;;;;;;;21.62;59.53;100485.34;1727552;81;21128;-48
2022/07/31 03:05:16;;;;;;;4.85;2.27;;;;;;;21.64;59.53;100483.30;1702754;82;21042;-48
2022/07/31 03:07:44;;;;;;;6.35;2.62;;;;;;;21.68;59.55;100486.41;1725544;80;21069;-47
2022/07/31 03:10:14;;;;;;;7.30;2.95;;;;;;;21.70;59.41;100481.20;1738310;81;21075;-47
2022/07/31 03:12:45;;;;;;;7.72;2.35;;;;;;;21.68;59.47;100481.88;1750462;79;21057;-47
2022/07/31 03:15:14;;;;;;;5.33;2.55;;;;;;;21.69;59.52;100481.39;1746131;80;21467;-48
2022/07/31 03:17:43;;;;;;;6.08;2.30;;;;;;;21.70;59.58;100485.70;1740024;79;21046;-48
2022/07/31 03:20:12;;;;;;;7.60;2.70;;;;;;;21.70;59.58;100487.05;1761334;81;21059;-48
2022/07/31 03:22:39;;;;;;;5.03;2.87;;;;;;;21.71;59.74;100484.70;1707687;81;21063;-47
2022/07/31 03:25:07;;;;;;;6.62;2.90;;;;;;;21.71;59.67;100486.85;1754926;79;21140;-47
2022/07/31 03:27:35;;;;;;;5.58;2.75;;;;;;;21.73;59.73;100489.86;1757153;81;21940;-48
2022/07/31 03:30:02;;;;;;;4.90;2.42;;;;;;;21.73;59.51;100488.00;1751671;79;21037;-48
2022/07/31 03:32:29;;;;;;;4.50;2.40;;;;;;;21.72;59.45;100490.38;1766055;81;21659;-49
2022/07/31 03:34:56;;;;;;;4.97;2.12;;;;;;;21.74;59.48;100490.16;1764543;80;21066;-48
2022/07/31 03:37:22;;;;;;;4.87;2.70;;;;;;;21.78;59.42;100484.75;1763420;80;21710;-48
2022/07/31 03:39:49;;;;;;;8.53;3.58;;;;;;;21.86;59.51;100489.45;1754989;80;21554;-48
2022/07/31 03:42:17;;;;;;;4.87;2.20;;;;;;;21.91;59.29;100486.71;1752183;81;21039;-48
2022/07/31 03:44:44;;;;;;;9.30;2.70;;;;;;;21.94;59.18;100491.16;1742062;79;21476;-47
2022/07/31 03:47:10;;;;;;;5.47;2.22;;;;;;;21.96;59.18;100490.45;1754437;81;21502;-47
2022/07/31 03:49:37;;;;;;;5.28;2.35;;;;;;;22.00;59.08;100486.86;1759302;81;21308;-48
2022/07/31 03:52:04;;;;;;;4.05;2.10;;;;;;;22.07;59.07;100489.92;1750980;80;21066;-48
2022/07/31 03:54:30;;;;;;;4.85;2.35;;;;;;;22.11;58.77;100488.16;1758880;81;21005;-48
2022/07/31 03:57:05;;;;;;;7.03;2.37;;;;;;;22.13;58.76;100484.80;1738251;80;21538;-48
2022/07/31 03:59:33;;;;;;;4.90;2.22;;;;;;;22.14;58.91;100487.78;1730634;81;21070;-48
2022/07/31 04:02:02;;;;;;;4.92;2.02;;;;;;;22.14;58.95;100480.58;1757037;80;21854;-48
2022/07/31 04:04:36;;;;;;;6.55;2.47;;;;;;;22.14;58.82;100482.41;1755851;79;21070;-48
2022/07/31 04:07:05;;;;;;;5.03;2.30;;;;;;;22.15;58.75;100475.52;1753135;81;21098;-48
2022/07/31 04:09:32;;;;;;;4.35;2.35;;;;;;;22.17;58.66;100473.98;1755988;79;21098;-48
2022/07/31 04:11:59;;;;;;;4.87;1.87;;;;;;;22.18;58.72;100468.44;1752720;80;21127;-48
2022/07/31 04:14:25;;;;;;;5.33;2.22;;;;;;;22.23;58.46;100471.88;1761393;80;21135;-48
2022/07/31 04:16:52;;;;;;;6.70;2.30;;;;;;;22.28;58.17;100470.80;1756169;80;21042;-47
2022/07/31 04:19:18;;;;;;;4.10;2.02;;;;;;;22.38;58.00;100478.48;1754268;79;21031;-48
2022/07/31 04:21:45;;;;;;;5.22;2.27;;;;;;;22.43;57.81;100481.39;1751465;80;21018;-48
2022/07/31 04:24:15;;;;;;;5.97;2.22;;;;;;;22.47;57.51;100477.80;1741555;80;21042;-48
2022/07/31 04:26:43;;;;;;;5.05;2.77;;;;;;;22.51;57.06;100475.02;1757353;80;21154;-48
2022/07/31 04:29:11;;;;;;;4.30;2.17;;;;;;;22.55;57.23;100481.66;1757554;80;21581;-48
2022/07/31 04:31:38;;;;;;;4.47;2.12;;;;;;;22.57;57.17;100483.63;1756315;80;21053;-49
2022/07/31 04:34:06;;;;;;;6.45;2.30;;;;;;;22.58;57.16;100485.29;1736096;80;20999;-48
2022/07/31 04:36:33;;;;;;;4.78;2.33;;;;;;;22.56;57.18;100487.31;1754703;79;21070;-48
2022/07/31 04:38:59;;;;;;;5.20;2.33;;;;;;;22.56;57.30;100490.00;1759146;79;21991;-48
2022/07/31 04:41:27;;;;;;;5.05;2.00;;;;;;;22.58;57.09;100489.31;1753701;80;21548;-48
2022/07/31 04:43:56;;;;;;;5.72;1.67;;;;;;;22.60;57.29;100489.41;1754343;80;21125;-47
2022/07/31 04:46:23;;;;;;;6.10;1.98;;;;;;;22.65;57.47;100495.52;1754757;80;21515;-48
2022/07/31 04:48:50;;;;;;;6.55;2.00;;;;;;;22.67;57.54;100497.48;1762531;80;21550;-48
2022/07/31 04:51:19;;;;;;;4.62;1.90;;;;;;;22.68;57.25;100495.13;1756779;80;21172;-48
2022/07/31 04:53:45;;;;;;;6.72;2.27;;;;;;;22.69;57.14;100496.77;1756286;79;21079;-48
2022/07/31 04:59:02;;;;;;;3.98;2.02;;;;;;;22.75;57.04;100501.86;1760065;80;21058;-48
2022/07/31 05:01:29;;;;;;;5.92;2.15;;;;;;;22.79;57.15;100497.22;1751242;80;21047;-48
2022/07/31 05:03:56;;;;;;;10.85;1.67;;;;;;;22.87;56.46;100486.83;1757384;79;21180;-48
2022/07/31 05:06:34;;;;;;;3.92;1.90;;;;;;;22.98;56.03;100484.06;1703615;83;21029;-47
2022/07/31 05:09:02;;;;;;;3.98;1.82;;;;;;;23.06;56.01;100488.44;1742342;80;21055;-48
2022/07/31 05:11:31;;;;;;;4.20;1.72;;;;;;;23.13;55.86;100485.28;1719773;80;21629;-47
2022/07/31 05:13:59;;;;;;;3.60;1.62;;;;;;;23.18;55.64;100486.34;1729081;80;21628;-48
2022/07/31 05:16:27;;;;;;;4.90;2.10;;;;;;;23.23;55.32;100475.50;1730773;82;21131;-48
2022/07/31 05:18:55;;;;;;;8.10;2.70;;;;;;;23.28;55.02;100475.70;1728074;80;21102;-48
2022/07/31 05:21:40;;;;;;;4.25;1.47;;;;;;;23.31;54.77;100472.62;1741676;81;21055;-51
2022/07/31 05:24:25;;;;;;;3.90;2.00;;;;;;;23.35;54.99;100472.51;1743957;81;21087;-48
2022/07/31 05:27:09;;;;;;;4.60;1.87;;;;;;;23.39;55.00;100472.42;1746431;80;20984;-48
2022/07/31 05:29:36;;;;;;;6.00;1.72;;;;;;;23.42;54.78;100480.08;1747615;80;21132;-48
2022/07/31 05:32:04;;;;;;;6.35;2.10;;;;;;;23.43;54.58;100469.62;1751690;81;21043;-48
2022/07/31 05:34:32;;;;;;;6.10;1.75;;;;;;;23.45;54.53;100473.45;1741655;80;21049;-48
2022/07/31 05:37:01;;;;;;;4.50;1.92;;;;;;;23.47;54.38;100474.91;1733535;80;21106;-48
2022/07/31 05:39:29;;;;;;;5.00;1.87;;;;;;;23.51;54.61;100476.14;1737119;80;21070;-48
2022/07/31 05:42:14;;;;;;;4.93;1.63;;;;;;;23.55;54.72;100476.06;1749769;81;21750;-48
2022/07/31 05:44:59;;;;;;;3.97;1.83;;;;;;;23.60;54.42;100477.28;1743146;80;21081;-48
2022/07/31 05:47:25;;;;;;;4.33;1.95;;;;;;;23.64;54.10;100484.73;1743686;80;22227;-48
2022/07/31 05:49:52;;;;;;;5.22;2.25;;;;;;;23.67;53.90;100475.42;1736117;80;21585;-48
2022/07/31 05:52:18;;;;;;;3.60;1.65;;;;;;;23.71;53.70;100477.49;1749048;81;22386;-48
2022/07/31 05:54:46;;;;;;;5.03;1.72;;;;;;;23.75;53.28;100472.52;1734060;80;21455;-53
2022/07/31 05:57:18;;;;;;;4.78;1.65;;;;;;;23.81;52.87;100463.64;1744225;81;21051;-48
2022/07/31 05:59:45;;;;;;;5.42;2.08;;;;;;;23.88;52.50;100465.02;1741656;80;20984;-48
2022/07/31 06:02:12;;;;;;;4.80;1.45;;;;;;;23.94;52.49;100469.56;1745942;81;21079;-48
2022/07/31 06:04:49;;;;;;;4.33;1.85;;;;;;;23.99;52.22;100474.28;1697917;82;21086;-48
2022/07/31 06:07:16;;;;;;;6.15;1.92;;;;;;;24.06;52.53;100477.81;1738368;80;21971;-48
2022/07/31 06:09:44;;;;;;;4.25;1.70;;;;;;;24.13;52.41;100476.46;1734421;81;21093;-48
2022/07/31 06:12:11;;;;;;;7.28;1.90;;;;;;;24.19;51.75;100476.44;1752969;80;21515;-48
2022/07/31 06:14:37;;;;;;;3.58;1.52;;;;;;;24.24;51.32;100468.57;1762193;80;21140;-48
2022/07/31 06:17:11;;;;;;;3.77;1.60;;;;;;;24.29;50.99;100475.48;1758353;81;20992;-48
2022/07/31 06:19:38;;;;;;;6.10;1.90;;;;;;;24.35;50.60;100468.95;1765249;80;21121;-49
2022/07/31 06:22:04;;;;;;;4.45;1.85;;;;;;;24.39;50.35;100468.83;1744718;81;21055;-48
2022/07/31 06:24:31;;;;;;;6.78;1.90;;;;;;;24.45;50.29;100474.70;1744086;79;21143;-48
2022/07/31 06:26:59;;;;;;;4.40;1.60;;;;;;;24.48;49.42;100467.03;1756502;81;21071;-47
2022/07/31 06:29:29;;;;;;;3.87;1.70;;;;;;;24.51;49.68;100464.45;1753850;79;21062;-48
2022/07/31 06:31:56;;;;;;;3.50;1.65;;;;;;;24.56;50.25;100460.64;1759817;80;21107;-48
2022/07/31 06:34:23;;;;;;;3.08;1.40;;;;;;;24.61;49.93;100456.78;1764140;79;21105;-48
2022/07/31 06:36:50;;;;;;;6.62;1.45;;;;;;;24.69;49.57;100462.95;1758485;81;21068;-48
2022/07/31 06:39:19;;;;;;;3.47;1.70;;;;;;;24.75;48.72;100458.07;1751775;79;21537;-48
2022/07/31 06:42:00;;;;;;;3.45;1.60;;;;;;;24.81;48.90;100455.84;1732680;81;21047;-48
2022/07/31 06:44:31;;;;;;;3.75;1.62;;;;;;;24.88;48.66;100446.39;1740974;80;21806;-47
2022/07/31 06:47:18;;;;;;;3.83;1.67;;;;;;;24.97;48.52;100444.58;1754672;80;21073;-48
2022/07/31 06:50:06;;;;;;;5.40;1.75;;;;;;;25.06;47.96;100446.48;1752927;80;21111;-48
2022/07/31 06:52:34;;;;;;;4.20;1.37;;;;;;;25.12;47.65;100438.08;1765369;81;21000;-47
2022/07/31 06:55:02;;;;;;;4.08;1.65;;;;;;;25.19;47.24;100442.89;1757932;79;21126;-48
2022/07/31 06:57:28;;;;;;;4.25;1.60;;;;;;;25.25;47.54;100435.30;1737042;81;21113;-47
2022/07/31 06:59:55;;;;;;;3.62;1.60;;;;;;;25.35;47.83;100445.09;1755538;80;21018;-47
2022/07/31 07:02:22;;;;;;;4.10;1.70;;;;;;;25.43;46.75;100440.47;1750359;81;21007;-48
2022/07/31 07:04:49;;;;;;;4.50;1.47;;;;;;;25.49;46.44;100432.86;1754725;80;21075;-48
2022/07/31 07:07:15;;;;;;;3.65;1.50;;;;;;;25.53;45.85;100428.14;1757603;79;21154;-47
2022/07/31 07:09:42;;;;;;;3.50;1.47;;;;;;;25.58;45.21;100429.64;1755559;81;21136;-47
2022/07/31 07:12:09;;;;;;;5.25;1.60;;;;;;;25.64;44.66;100429.80;1763342;80;21099;-47
2022/07/31 07:14:36;;;;;;;6.87;1.65;;;;;;;25.68;44.06;100429.68;1760404;79;21023;-47
2022/07/31 07:17:04;;;;;;;3.87;1.30;;;;;;;25.72;43.84;100428.17;1759284;80;21070;-47
2022/07/31 07:19:31;;;;;;;4.78;1.50;;;;;;;25.76;43.82;100427.52;1769948;80;21086;-47
2022/07/31 07:21:58;;;;;;;4.22;1.65;;;;;;;25.81;43.81;100426.86;1772181;80;21203;-47
2022/07/31 07:24:25;;;;;;;3.40;1.40;;;;;;;25.88;43.64;100425.45;1759678;80;21047;-48
2022/07/31 07:26:56;;;;;;;3.45;1.37;;;;;;;25.92;42.51;100422.59;1744540;80;21039;-48
2022/07/31 07:29:23;;;;;;;4.95;2.22;;;;;;;25.95;42.71;100424.34;1747188;79;21050;-47
2022/07/31 07:31:50;;;;;;;4.72;1.50;;;;;;;26.01;42.07;100429.38;1770052;80;21015;-47
2022/07/31 07:34:17;;;;;;;9.55;1.80;;;;;;;26.06;42.56;100428.72;1761412;79;21132;-47
2022/07/31 07:36:44;;;;;;;4.70;1.75;;;;;;;26.12;41.31;100425.11;1763171;79;21091;-47
2022/07/31 07:39:13;;;;;;;5.03;1.85;;;;;;;26.17;41.42;100419.05;1755958;79;21137;-47
2022/07/31 07:41:40;;;;;;;4.12;1.57;;;;;;;26.21;40.63;100420.23;1766359;80;21588;-48
2022/07/31 07:44:08;;;;;;;3.65;1.42;;;;;;;26.24;41.02;100418.44;1748219;79;21082;-47
2022/07/31 07:46:34;;;;;;;4.90;1.50;;;;;;;26.30;41.32;100429.68;1748207;79;21110;-47
2022/07/31 07:49:03;;;;;;;3.75;1.52;;;;;;;26.37;41.21;100418.28;1758448;80;21062;-48
2022/07/31 07:51:37;;;;;;;3.60;1.25;;;;;;;26.44;40.83;100417.66;1767839;79;21015;-47
2022/07/31 07:54:06;;;;;;;3.47;1.60;;;;;;;26.49;40.88;100416.48;1762278;80;21062;-47
2022/07/31 07:56:51;;;;;;;4.73;1.37;;;;;;;26.57;41.57;100415.86;1755553;80;21545;-47
2022/07/31 07:59:35;;;;;;;5.53;1.60;;;;;;;26.64;40.49;100414.73;1695202;83;22422;-47
2022/07/31 08:02:12;;;;;;;4.45;1.72;;;;;;;26.70;39.96;100417.06;1727784;80;21020;-47
2022/07/31 08:04:39;;;;;;;5.67;1.75;;;;;;;26.74;40.08;100406.09;1758927;79;21128;-47
2022/07/31 08:07:06;;;;;;;3.83;1.40;;;;;;;26.77;38.97;100405.64;1757779;79;21004;-47
2022/07/31 08:09:36;;;;;;;4.22;1.32;;;;;;;26.80;39.23;100408.42;1761376;80;20991;-47
2022/07/31 08:12:21;;;;;;;6.23;1.83;;;;;;;26.83;38.20;100406.08;1766710;80;21089;-46
2022/07/31 08:14:56;;;;;;;2.65;0.90;;;;;;;26.86;37.81;100402.08;1715960;79;21054;-50
2022/07/31 08:17:41;;;;;;;;;;;;;;;26.88;37.58;100399.46;1777645;79;21137;-47
2022/07/31 08:20:09;;;;;;;4.80;1.42;;;;;;;26.91;38.05;100400.05;1772629;79;20198;-46
2022/07/31 08:22:36;;;;;;;4.20;1.35;;;;;;;26.94;37.77;100403.11;1733181;80;21129;-46
2022/07/31 08:25:02;;;;;;;3.80;1.40;;;;;;;27.00;37.85;100397.30;1768261;79;21142;-51
2022/07/31 08:27:29;;;;;;;3.92;1.50;;;;;;;27.04;37.70;100397.96;1760257;79;21102;-46
2022/07/31 08:29:59;;;;;;;7.78;1.45;;;;;;;27.10;37.89;100394.88;1767010;79;21085;-46
2022/07/31 08:32:26;;;;;;;3.55;1.32;;;;;;;27.16;37.71;100387.18;1774437;80;21038;-47
2022/07/31 08:34:58;;;;;;;5.12;1.30;;;;;;;27.21;37.58;100394.59;1759390;79;21105;-47
2022/07/31 08:37:24;;;;;;;3.27;1.45;;;;;;;27.29;37.36;100392.13;1764067;79;21223;-47
2022/07/31 08:39:51;;;;;;;5.62;1.60;;;;;;;27.35;37.61;100394.71;1742684;79;21377;-47
2022/07/31 08:42:17;;;;;;;3.42;1.30;;;;;;;27.43;36.78;100395.69;1769212;80;21533;-46
2022/07/31 08:44:45;;;;;;;5.45;1.50;;;;;;;27.50;37.38;100391.52;1764407;80;21545;-47
2022/07/31 08:47:14;;;;;;;3.58;1.37;;;;;;;27.56;36.96;100387.08;1768756;80;21133;-48
2022/07/31 08:49:46;;;;;;;3.05;1.12;;;;;;;27.65;36.81;100387.53;1762474;79;21240;-46
2022/07/31 08:52:17;;;;;;;3.08;1.30;;;;;;;27.71;36.74;100383.90;1777986;80;20999;-47
2022/07/31 08:54:46;;;;;;;4.53;1.35;;;;;;;27.77;36.90;100377.52;1777040;80;21105;-46
2022/07/31 08:57:13;;;;;;;3.20;1.20;;;;;;;27.85;36.03;100369.59;1780331;80;21050;-47
2022/07/31 08:59:40;;;;;;;5.25;1.47;;;;;;;27.90;36.56;100367.00;1763370;79;21030;-47
2022/07/31 09:02:10;;;;;;;3.62;1.50;;;;;;;27.95;35.70;100361.19;1771607;80;21275;-47
2022/07/31 09:04:39;;;;;;;3.20;1.60;;;;;;;28.02;35.39;100358.89;1772196;79;21584;-46
2022/07/31 09:07:09;;;;;;;3.62;1.40;;;;;;;28.07;35.75;100363.05;1772152;79;20999;-47
2022/07/31 09:09:36;;;;;;;2.95;1.30;;;;;;;28.11;36.47;100356.92;1775589;80;21100;-46
2022/07/31 09:12:04;;;;;;;3.47;1.57;;;;;;;28.15;36.11;100355.37;1769769;79;21054;-46
2022/07/31 09:14:36;;;;;;;5.00;1.40;;;;;;;28.22;35.75;100349.02;1754573;79;21123;-47
2022/07/31 09:17:06;;;;;;;4.42;1.62;;;;;;;28.25;35.68;100349.34;1765376;81;21138;-47
2022/07/31 09:19:41;;;;;;;3.20;1.30;;;;;;;28.29;35.88;100345.08;1756664;81;21543;-47
2022/07/31 09:22:23;;;;;;;3.02;1.30;;;;;;;28.34;35.41;100341.66;1759902;79;21105;-47
2022/07/31 09:24:50;;;;;;;3.60;1.50;;;;;;;28.40;35.51;100338.00;1738365;80;21073;-47
2022/07/31 09:27:16;;;;;;;4.17;1.40;;;;;;;28.45;35.16;100334.57;1758602;80;21250;-47
2022/07/31 09:29:47;;;;;;;5.72;1.40;;;;;;;28.50;35.97;100336.02;1760817;80;21042;-47
2022/07/31 09:32:25;;;;;;;5.35;1.77;;;;;;;28.54;36.30;100336.61;1754043;80;21570;-47
2022/07/31 09:35:09;;;;;;;5.30;1.47;;;;;;;28.62;36.17;100334.63;1754975;79;21067;-47
2022/07/31 09:37:36;;;;;;;3.22;1.27;;;;;;;28.68;36.62;100338.53;1755986;81;21146;-47
2022/07/31 09:40:21;;;;;;;3.35;1.32;;;;;;;28.76;35.46;100337.30;1750232;80;21108;-47
2022/07/31 09:42:49;;;;;;;4.28;1.60;;;;;;;28.85;35.58;100333.64;1747950;80;21093;-47
2022/07/31 09:45:23;;;;;;;7.50;1.57;;;;;;;28.93;35.36;100334.59;1751373;79;21096;-47
2022/07/31 09:48:11;;;;;;;4.30;1.75;;;;;;;29.03;34.93;100340.72;1769893;81;21094;-47
2022/07/31 09:50:36;;;;;;;3.22;1.45;;;;;;;29.09;34.81;100338.39;1754611;79;21097;-48
2022/07/31 09:53:05;;;;;;;6.78;1.60;;;;;;;29.14;35.07;100334.40;1759982;80;21285;-49
2022/07/31 09:55:32;;;;;;;3.65;1.55;;;;;;;29.16;35.32;100329.55;1767003;80;21058;-47
2022/07/31 09:58:00;;;;;;;4.92;1.82;;;;;;;29.20;34.82;100333.97;1766589;80;21826;-47
2022/07/31 10:00:28;;;;;;;4.08;1.47;;;;;;;29.22;34.13;100325.89;1755665;79;21015;-47
2022/07/31 10:02:56;;;;;;;4.15;1.50;;;;;;;29.23;34.48;100323.99;1756747;79;21086;-48
2022/07/31 10:05:25;;;;;;;3.55;1.37;;;;;;;29.27;34.24;100333.28;1745514;79;21565;-47
2022/07/31 10:07:56;;;;;;;4.08;1.67;;;;;;;29.32;34.42;100323.03;1760007;81;21020;-47
2022/07/31 10:10:25;;;;;;;4.53;1.90;;;;;;;29.37;34.08;100324.45;1743032;79;20996;-47
2022/07/31 10:12:54;;;;;;;4.92;1.67;;;;;;;29.41;35.21;100323.72;1756932;80;21072;-47
2022/07/31 10:15:21;;;;;;;3.95;1.50;;;;;;;29.45;35.04;100311.84;1765497;79;22004;-48
2022/07/31 10:17:51;;;;;;;3.15;1.50;;;;;;;29.52;35.35;100311.14;1761839;80;21187;-48
2022/07/31 10:20:24;;;;;;;4.22;1.60;;;;;;;29.59;35.26;100310.41;1749282;79;21082;-48
2022/07/31 10:23:16;;;;;;;5.25;1.77;;;;;;;29.67;34.88;100313.20;1722787;80;21062;-47
2022/07/31 10:25:50;;;;;;;4.78;1.45;;;;;;;29.74;34.84;100307.08;1751580;79;21582;-48
2022/07/31 10:28:17;;;;;;;4.30;1.92;;;;;;;29.77;34.58;100299.83;1746215;80;22316;-48
2022/07/31 10:30:45;;;;;;;5.30;1.80;;;;;;;29.78;34.23;100305.52;1758872;79;21124;-47
2022/07/31 10:33:11;;;;;;;5.08;1.62;;;;;;;29.80;34.16;100302.02;1750847;80;20999;-48
2022/07/31 10:36:06;;;;;;;3.77;1.72;;;;;;;29.83;33.54;100299.35;1749559;80;21375;-48
2022/07/31 10:39:00;;;;;;;2.95;1.25;;;;;;;29.87;34.16;100295.05;1760459;79;21468;-48
2022/07/31 10:42:20;;;;;;;3.72;1.55;;;;;;;29.92;33.88;100292.94;1739732;79;21058;-47
2022/07/31 10:44:58;;;;;;;7.50;1.52;;;;;;;29.99;34.74;100293.55;1737207;80;22143;-47
2022/07/31 10:47:26;;;;;;;4.12;1.70;;;;;;;30.07;35.40;100294.46;1744038;79;21062;-47
2022/07/31 10:49:57;;;;;;;5.47;1.50;;;;;;;30.14;34.27;100289.67;1737781;82;21565;-48
2022/07/31 10:52:36;;;;;;;3.47;1.47;;;;;;;30.20;34.54;100289.98;1741275;80;21542;-48
2022/07/31 10:55:21;;;;;;;3.70;1.47;;;;;;;30.28;34.49;100282.45;1745048;80;21588;-48
2022/07/31 10:58:15;;;;;;;4.00;1.67;;;;;;;30.34;35.38;100276.01;1751044;80;21182;-47
2022/07/31 11:00:49;;;;;;;5.10;1.77;;;;;;;30.44;35.02;100278.84;1745748;80;21109;-47
2022/07/31 11:03:43;;;;;;;4.92;2.20;;;;;;;30.50;34.32;100269.68;1751990;80;21043;-48
2022/07/31 11:06:14;;;;;;;4.70;1.77;;;;;;;30.58;34.64;100270.27;1756218;79;21059;-48
2022/07/31 11:08:54;;;;;;;6.58;1.67;;;;;;;30.61;34.28;100262.42;1765324;79;21503;-48
2022/07/31 11:11:39;;;;;;;4.50;1.85;;;;;;;30.63;33.82;100260.30;1762039;79;25983;-48
2022/07/31 11:14:07;;;;;;;5.30;2.02;;;;;;;30.66;33.93;100263.02;1757726;78;21050;-48
2022/07/31 11:16:36;;;;;;;3.17;1.60;;;;;;;30.72;33.98;100252.48;1751496;80;21531;-48
2022/07/31 11:19:07;;;;;;;8.08;1.90;;;;;;;30.77;33.60;100257.14;1772245;80;21066;-47
2022/07/31 11:21:36;;;;;;;4.78;1.98;;;;;;;30.83;34.47;100243.85;1777086;78;21081;-48
2022/07/31 11:24:20;;;;;;;4.53;2.12;;;;;;;30.95;33.29;100249.12;1782490;79;21112;-48
2022/07/31 11:40:09;;;;;;;4.47;1.80;;;;;;;31.99;31.56;100231.64;1783938;79;22714;-47
2022/07/31 11:42:42;;;;;;;3.40;1.65;;;;;;;32.02;31.96;100237.91;1753884;80;21555;-46
2022/07/31 11:45:10;;;;;;;8.90;2.02;;;;;;;32.05;32.14;100238.73;1752113;80;21231;-47
2022/07/31 11:47:43;;;;;;;3.33;1.55;;;;;;;32.08;31.70;100233.31;1730505;81;20994;-47
2022/07/31 11:50:11;;;;;;;3.92;1.50;;;;;;;32.12;32.25;100228.98;1751524;81;21050;-47
2022/07/31 11:52:42;;;;;;;3.65;1.62;;;;;;;32.17;31.22;100232.52;1720885;81;21015;-47
2022/07/31 11:55:12;;;;;;;5.87;2.12;;;;;;;32.17;31.37;100226.27;1715431;81;21505;-48